Time;durP1;ratioP1;P1;durP2;ratioP2;P2;SDS_P1;SDS_P2;PMS_P1;PMS_P2;Temp;Humidity;BMP_temperature;BMP_pressure;BME280_temperature;BME280_humidity;BME280_pressure;Samples;Min_cycle;Max_cycle;Signal;HPM_P1;HPM_P2
2021/09/28 00:02:25;;;;;;;9.98;5.18;;;11.20;99.90;;;;;;5027359;28;20174;-78
2021/09/28 00:04:51;;;;;;;9.15;4.70;;;11.20;99.90;;;;;;5025391;28;20076;-78
2021/09/28 00:07:17;;;;;;;7.70;4.10;;;11.20;99.90;;;;;;5028046;28;20069;-78
2021/09/28 00:09:43;;;;;;;9.88;4.63;;;11.10;99.90;;;;;;5028836;28;20051;-78
2021/09/28 00:12:09;;;;;;;12.43;4.55;;;11.10;99.90;;;;;;5045477;28;20041;-78
2021/09/28 00:14:36;;;;;;;9.23;4.35;;;11.10;99.90;;;;;;5045237;28;20407;-78
2021/09/28 00:17:05;;;;;;;10.65;5.85;;;11.10;99.90;;;;;;5044742;28;20123;-78
2021/09/28 00:19:30;;;;;;;9.05;4.75;;;11.10;99.90;;;;;;5028854;28;20491;-78
2021/09/28 00:21:56;;;;;;;11.75;6.10;;;11.00;99.90;;;;;;5044689;28;20072;-78
2021/09/28 00:24:22;;;;;;;7.40;5.25;;;11.00;99.90;;;;;;5029319;28;20040;-79
2021/09/28 00:26:48;;;;;;;8.45;5.93;;;11.00;99.90;;;;;;5023006;28;20041;-79
2021/09/28 00:29:13;;;;;;;13.23;6.15;;;11.10;99.90;;;;;;5028000;28;20063;-78
2021/09/28 00:31:39;;;;;;;10.65;4.70;;;11.00;99.90;;;;;;5041940;28;20068;-79
2021/09/28 00:34:05;;;;;;;10.50;5.35;;;11.00;99.90;;;;;;5024717;28;20110;-79
2021/09/28 00:36:31;;;;;;;6.72;4.50;;;11.00;99.90;;;;;;5044593;28;20132;-79
2021/09/28 00:38:56;;;;;;;9.10;5.40;;;10.90;99.90;;;;;;5044274;28;20041;-78
2021/09/28 00:41:22;;;;;;;10.48;5.38;;;10.90;99.90;;;;;;5043480;28;20522;-78
2021/09/28 00:43:50;;;;;;;8.68;5.38;;;10.90;99.90;;;;;;5044616;28;20514;-78
2021/09/28 00:46:17;;;;;;;14.98;8.30;;;10.90;99.90;;;;;;5028177;28;20044;-78
2021/09/28 00:48:43;;;;;;;10.20;6.78;;;10.90;99.90;;;;;;5044483;28;20060;-79
2021/09/28 00:51:11;;;;;;;12.25;8.05;;;10.90;99.90;;;;;;5044236;28;20395;-79
2021/09/28 00:53:39;;;;;;;10.32;6.57;;;10.90;99.90;;;;;;5028236;28;20094;-79
2021/09/28 00:56:07;;;;;;;11.32;5.63;;;10.90;99.90;;;;;;5027859;28;20045;-79
2021/09/28 00:58:35;;;;;;;7.97;6.25;;;10.90;99.90;;;;;;5042341;28;20048;-79
2021/09/28 01:01:03;;;;;;;10.73;7.32;;;10.90;99.90;;;;;;5042853;28;20112;-79
2021/09/28 01:03:31;;;;;;;7.43;6.13;;;10.90;99.90;;;;;;5044701;28;20128;-79
2021/09/28 01:05:57;;;;;;;11.82;6.90;;;10.90;99.90;;;;;;5047992;28;20049;-79
2021/09/28 01:08:23;;;;;;;13.60;8.57;;;10.80;99.90;;;;;;5047312;28;20065;-79
2021/09/28 01:10:50;;;;;;;9.50;7.75;;;10.80;99.90;;;;;;5048288;28;20428;-79
2021/09/28 01:13:16;;;;;;;13.32;8.68;;;10.80;99.90;;;;;;5033499;28;20045;-79
2021/09/28 01:16:00;;;;;;;11.70;8.93;;;10.80;99.90;;;;;;5047554;28;20107;-79
2021/09/28 01:18:38;;;;;;;13.07;8.68;;;10.80;99.90;;;;;;5045556;28;20490;-79
2021/09/28 01:21:12;;;;;;;11.65;7.45;;;10.70;99.90;;;;;;5030062;28;20063;-79
2021/09/28 01:23:44;;;;;;;9.80;7.53;;;10.70;99.90;;;;;;5057443;28;20551;-79
2021/09/28 01:26:13;;;;;;;10.40;7.65;;;10.70;99.90;;;;;;5028221;28;20045;-79
2021/09/28 01:28:39;;;;;;;11.65;7.95;;;10.60;99.90;;;;;;5031592;28;20503;-79
2021/09/28 01:31:05;;;;;;;12.15;8.07;;;10.70;99.90;;;;;;5044476;28;20049;-78
2021/09/28 01:33:34;;;;;;;10.60;7.97;;;10.70;99.90;;;;;;5047314;28;20056;-79
2021/09/28 01:36:00;;;;;;;13.57;10.35;;;10.60;99.90;;;;;;5047530;28;20060;-79
2021/09/28 01:38:25;;;;;;;15.98;9.57;;;10.60;99.90;;;;;;5047589;28;20053;-79
2021/09/28 01:40:51;;;;;;;10.23;8.32;;;10.60;99.90;;;;;;5046641;28;20128;-79
2021/09/28 01:43:19;;;;;;;12.98;9.77;;;10.60;99.90;;;;;;5030904;28;20068;-79
2021/09/28 01:45:45;;;;;;;12.05;9.32;;;10.60;99.90;;;;;;5046139;28;20137;-79
2021/09/28 01:48:11;;;;;;;12.75;10.45;;;10.50;99.90;;;;;;5046987;28;20065;-79
2021/09/28 01:50:37;;;;;;;14.77;10.32;;;10.50;99.90;;;;;;5047544;28;20407;-79
2021/09/28 01:53:04;;;;;;;12.30;9.98;;;10.50;99.90;;;;;;5030704;28;20052;-79
2021/09/28 01:55:30;;;;;;;17.85;13.85;;;10.50;99.90;;;;;;5030850;28;20102;-79
2021/09/28 01:57:59;;;;;;;15.07;9.48;;;10.50;99.90;;;;;;5030794;28;20131;-79
2021/09/28 02:00:26;;;;;;;13.63;10.80;;;10.50;99.90;;;;;;5042947;28;20053;-78
2021/09/28 02:02:52;;;;;;;13.95;11.60;;;10.50;99.90;;;;;;5042444;28;20049;-79
2021/09/28 02:05:18;;;;;;;16.35;11.18;;;10.50;99.90;;;;;;5030475;28;20495;-79
2021/09/28 02:07:44;;;;;;;15.82;11.82;;;10.50;99.90;;;;;;5031339;28;20356;-79
2021/09/28 02:10:10;;;;;;;14.20;10.65;;;10.50;99.90;;;;;;5030464;28;20141;-79
2021/09/28 02:12:38;;;;;;;12.88;10.60;;;10.40;99.90;;;;;;5047245;28;20107;-79
2021/09/28 02:15:04;;;;;;;14.93;11.52;;;10.40;99.90;;;;;;5030274;28;20402;-79
2021/09/28 02:17:30;;;;;;;12.45;10.95;;;10.40;99.90;;;;;;5047317;28;20041;-79
2021/09/28 02:19:55;;;;;;;16.42;10.60;;;10.40;99.90;;;;;;5044952;28;20385;-80
2021/09/28 02:22:21;;;;;;;16.13;10.52;;;10.40;99.90;;;;;;5046839;28;20696;-79
2021/09/28 02:24:47;;;;;;;13.20;10.55;;;10.40;99.90;;;;;;5047689;28;20041;-79
2021/09/28 02:27:13;;;;;;;14.10;12.00;;;10.50;99.90;;;;;;5027354;28;20033;-79
2021/09/28 02:29:39;;;;;;;19.00;13.55;;;10.40;99.90;;;;;;5043132;28;20083;-79
2021/09/28 02:32:05;;;;;;;17.48;12.80;;;10.40;99.90;;;;;;5045613;28;20053;-78
2021/09/28 02:34:35;;;;;;;14.75;13.18;;;10.40;99.90;;;;;;5018988;28;20128;-79
2021/09/28 02:37:05;;;;;;;20.25;15.98;;;10.40;99.90;;;;;;5030032;28;20052;-79
2021/09/28 02:39:31;;;;;;;15.20;12.45;;;10.40;99.90;;;;;;5029954;28;20448;-79
2021/09/28 02:41:57;;;;;;;18.48;12.35;;;10.40;99.90;;;;;;5029089;28;20055;-79
2021/09/28 02:44:23;;;;;;;23.02;16.15;;;10.40;99.90;;;;;;5046457;28;20053;-79
2021/09/28 02:46:49;;;;;;;18.13;13.05;;;10.40;99.90;;;;;;5044811;28;20069;-79
2021/09/28 02:49:15;;;;;;;15.40;11.43;;;10.30;99.90;;;;;;5029310;28;20122;-79
2021/09/28 02:51:40;;;;;;;16.10;12.38;;;10.40;99.90;;;;;;5029228;28;20492;-79
2021/09/28 02:54:06;;;;;;;15.73;12.73;;;10.40;99.90;;;;;;5029238;28;20127;-79
2021/09/28 02:56:32;;;;;;;20.08;14.38;;;10.40;99.90;;;;;;5045966;28;20040;-78
2021/09/28 02:58:59;;;;;;;27.23;19.38;;;10.40;99.90;;;;;;5029689;28;20045;-78
2021/09/28 03:01:24;;;;;;;19.95;14.68;;;10.40;99.90;;;;;;5045124;28;20033;-79
2021/09/28 03:03:50;;;;;;;16.48;13.95;;;10.30;99.90;;;;;;5025308;28;20045;-79
2021/09/28 03:06:16;;;;;;;17.83;14.68;;;10.30;99.90;;;;;;5029110;28;20037;-79
2021/09/28 03:08:42;;;;;;;19.52;15.45;;;10.30;99.90;;;;;;5029055;28;20479;-78
2021/09/28 03:11:10;;;;;;;19.48;15.48;;;10.30;99.90;;;;;;5044727;28;20045;-78
2021/09/28 03:13:36;;;;;;;21.77;15.05;;;10.30;99.90;;;;;;5045518;28;20040;-79
2021/09/28 03:16:02;;;;;;;22.70;18.10;;;10.30;99.90;;;;;;5028492;28;20048;-79
2021/09/28 03:18:28;;;;;;;17.70;13.73;;;10.30;99.90;;;;;;5045131;28;20045;-78
2021/09/28 03:20:54;;;;;;;19.27;14.77;;;10.30;99.90;;;;;;5028759;28;20660;-78
2021/09/28 03:23:20;;;;;;;18.30;14.48;;;10.30;99.90;;;;;;5044075;28;20040;-78
2021/09/28 03:25:46;;;;;;;19.05;15.43;;;10.30;99.90;;;;;;5043979;28;20481;-79
2021/09/28 03:28:12;;;;;;;21.27;16.25;;;10.30;99.90;;;;;;5044505;28;20035;-79
2021/09/28 03:30:38;;;;;;;19.77;16.05;;;10.30;99.90;;;;;;5027343;28;20048;-79
2021/09/28 03:33:05;;;;;;;14.43;11.98;;;10.30;99.90;;;;;;5044406;28;20086;-78
2021/09/28 03:35:31;;;;;;;23.15;17.88;;;10.30;99.90;;;;;;5029101;28;20051;-79
2021/09/28 03:37:57;;;;;;;19.98;16.77;;;10.30;99.90;;;;;;5026230;28;20126;-78
2021/09/28 03:40:25;;;;;;;25.40;20.35;;;10.30;99.90;;;;;;5047960;28;20109;-79
2021/09/28 03:42:51;;;;;;;27.13;19.52;;;10.30;99.90;;;;;;5049203;28;20515;-78
2021/09/28 03:45:17;;;;;;;32.35;19.63;;;10.20;99.90;;;;;;5032185;28;20487;-78
2021/09/28 03:47:43;;;;;;;21.80;16.25;;;10.30;99.90;;;;;;5032324;28;20076;-78
2021/09/28 03:50:09;;;;;;;25.13;19.10;;;10.30;99.90;;;;;;5049062;28;20502;-79
2021/09/28 03:52:35;;;;;;;32.85;22.05;;;10.30;99.90;;;;;;5049040;28;20087;-78
2021/09/28 03:55:04;;;;;;;18.27;14.65;;;10.30;99.90;;;;;;5032495;28;20048;-79
2021/09/28 03:57:30;;;;;;;22.85;16.60;;;10.40;99.90;;;;;;5049064;28;20117;-78
2021/09/28 03:59:56;;;;;;;18.35;15.82;;;10.30;99.90;;;;;;5031888;28;20475;-79
2021/09/28 04:02:22;;;;;;;22.00;16.98;;;10.30;99.90;;;;;;5026645;28;20041;-78
2021/09/28 04:04:48;;;;;;;24.15;16.50;;;10.30;99.90;;;;;;5032284;28;20113;-79
2021/09/28 04:07:16;;;;;;;18.75;15.75;;;10.30;99.90;;;;;;5031864;28;20037;-79
2021/09/28 04:09:42;;;;;;;22.13;15.82;;;10.30;99.90;;;;;;5032996;28;20037;-78
2021/09/28 04:12:08;;;;;;;19.25;14.48;;;10.30;99.90;;;;;;5048249;28;20039;-78
2021/09/28 04:14:35;;;;;;;25.42;16.88;;;10.30;99.90;;;;;;5047712;28;20378;-78
2021/09/28 04:17:00;;;;;;;22.42;19.40;;;10.30;99.90;;;;;;5032097;28;20136;-79
2021/09/28 04:19:26;;;;;;;17.23;14.60;;;10.30;99.90;;;;;;5048182;28;20123;-78
2021/09/28 04:21:52;;;;;;;20.05;17.00;;;10.30;99.90;;;;;;5048752;28;20044;-79
2021/09/28 04:24:18;;;;;;;26.67;19.17;;;10.30;99.90;;;;;;5030510;28;20041;-78
2021/09/28 04:26:44;;;;;;;22.45;16.20;;;10.30;99.90;;;;;;5047450;28;20485;-79
2021/09/28 04:29:10;;;;;;;35.45;22.25;;;10.20;99.90;;;;;;5029869;28;20083;-78
2021/09/28 04:31:36;;;;;;;25.05;18.55;;;10.20;99.90;;;;;;5030403;28;20040;-79
2021/09/28 04:34:05;;;;;;;21.00;16.65;;;10.20;99.90;;;;;;5047385;28;20127;-78
2021/09/28 04:36:30;;;;;;;25.20;16.95;;;10.20;99.90;;;;;;5029635;28;20041;-78
2021/09/28 04:38:56;;;;;;;26.58;19.35;;;10.20;99.90;;;;;;5050982;28;20051;-78
2021/09/28 04:41:22;;;;;;;23.05;18.23;;;10.20;99.90;;;;;;5050768;28;20111;-78
2021/09/28 04:43:48;;;;;;;33.20;21.77;;;10.20;99.90;;;;;;5051982;28;20044;-78
2021/09/28 04:46:15;;;;;;;29.40;20.25;;;10.10;99.90;;;;;;5050370;28;20068;-78
2021/09/28 04:48:42;;;;;;;26.08;21.05;;;10.10;99.90;;;;;;5050899;28;20040;-78
2021/09/28 04:51:08;;;;;;;21.08;18.65;;;10.10;99.90;;;;;;5035071;28;20101;-79
2021/09/28 04:53:34;;;;;;;32.47;24.38;;;10.10;99.90;;;;;;5051843;28;20045;-78
2021/09/28 04:56:00;;;;;;;24.80;19.23;;;10.10;99.90;;;;;;5051117;28;20057;-78
2021/09/28 04:58:26;;;;;;;26.08;19.58;;;10.10;99.90;;;;;;5050334;28;20047;-78
2021/09/28 05:00:52;;;;;;;23.40;20.25;;;10.10;99.90;;;;;;5031591;28;20101;-78
2021/09/28 05:03:18;;;;;;;32.67;22.60;;;10.10;99.90;;;;;;5030975;28;20078;-78
2021/09/28 05:05:45;;;;;;;25.27;17.98;;;10.10;99.90;;;;;;5034100;28;20102;-78
2021/09/28 05:08:10;;;;;;;28.30;21.73;;;10.10;99.90;;;;;;5050740;28;20410;-79
2021/09/28 05:10:36;;;;;;;30.10;21.05;;;10.10;99.90;;;;;;5014284;28;20032;-78
2021/09/28 05:13:03;;;;;;;26.48;21.00;;;10.10;99.90;;;;;;5048900;28;20714;-78
2021/09/28 05:15:30;;;;;;;31.92;22.25;;;10.10;99.90;;;;;;5032182;28;20187;-78
2021/09/28 05:17:55;;;;;;;23.67;18.25;;;10.10;99.90;;;;;;5046986;28;20119;-78
2021/09/28 05:20:21;;;;;;;34.00;24.92;;;10.00;99.90;;;;;;5034125;28;20058;-79
2021/09/28 05:22:47;;;;;;;32.53;21.70;;;10.00;99.90;;;;;;5034359;28;20032;-78
2021/09/28 05:25:13;;;;;;;30.17;22.38;;;10.00;99.90;;;;;;5031734;28;20029;-78
2021/09/28 05:27:39;;;;;;;25.45;19.63;;;10.00;99.90;;;;;;5042300;28;20044;-78
2021/09/28 05:30:06;;;;;;;32.10;21.98;;;10.00;99.90;;;;;;5051979;28;20052;-79
2021/09/28 05:32:35;;;;;;;30.08;21.50;;;10.00;99.90;;;;;;5030381;28;20100;-79
2021/09/28 05:35:00;;;;;;;31.00;23.52;;;10.00;99.90;;;;;;5050986;28;20110;-78
2021/09/28 05:37:26;;;;;;;23.60;18.33;;;10.00;99.90;;;;;;5049607;28;20813;-79
2021/09/28 05:39:52;;;;;;;24.27;17.85;;;10.00;99.90;;;;;;5029721;28;20041;-79
2021/09/28 05:42:18;;;;;;;34.15;21.05;;;10.00;99.90;;;;;;5049313;28;20071;-79
2021/09/28 05:44:43;;;;;;;24.00;19.83;;;10.00;99.90;;;;;;5050392;28;20044;-79
2021/09/28 05:47:09;;;;;;;35.25;23.42;;;10.00;99.90;;;;;;5049870;28;20036;-78
2021/09/28 05:49:37;;;;;;;25.35;18.98;;;10.00;99.90;;;;;;5053581;28;20538;-79
2021/09/28 05:52:07;;;;;;;25.67;20.27;;;10.00;99.90;;;;;;5050145;28;20824;-79
2021/09/28 05:54:33;;;;;;;31.20;23.80;;;10.10;99.90;;;;;;5032289;28;20135;-78
2021/09/28 05:56:59;;;;;;;36.08;24.65;;;10.10;99.90;;;;;;5051341;28;20138;-79
2021/09/28 05:59:24;;;;;;;37.63;23.75;;;10.10;99.90;;;;;;5050673;28;20052;-78
2021/09/28 06:01:50;;;;;;;30.92;21.80;;;10.10;99.90;;;;;;5050594;28;20554;-78
2021/09/28 06:04:16;;;;;;;39.75;25.38;;;10.00;99.90;;;;;;5034121;28;20064;-76
2021/09/28 06:06:43;;;;;;;30.45;23.65;;;10.10;99.90;;;;;;5033051;28;20093;-78
2021/09/28 06:09:09;;;;;;;31.85;22.13;;;10.10;99.90;;;;;;5053255;28;20495;-78
2021/09/28 06:11:35;;;;;;;33.70;22.65;;;10.10;99.90;;;;;;5050176;28;20054;-78
2021/09/28 06:14:04;;;;;;;52.10;29.00;;;10.10;99.90;;;;;;5049996;28;20491;-78
2021/09/28 06:16:36;;;;;;;26.05;20.35;;;10.10;99.90;;;;;;5051833;28;20071;-79
2021/09/28 06:19:02;;;;;;;30.00;20.73;;;10.10;99.90;;;;;;5048106;28;20142;-79
2021/09/28 06:21:27;;;;;;;31.65;22.20;;;10.20;99.90;;;;;;5033842;28;20696;-78
2021/09/28 06:23:53;;;;;;;31.88;21.67;;;10.20;99.90;;;;;;5050190;28;20040;-78
2021/09/28 06:26:21;;;;;;;32.25;21.42;;;10.20;99.90;;;;;;5031307;28;20041;-78
2021/09/28 06:28:47;;;;;;;31.17;20.35;;;10.20;99.90;;;;;;5032637;28;20044;-79
2021/09/28 06:31:12;;;;;;;29.05;22.23;;;10.30;99.90;;;;;;5048767;28;20040;-78
2021/09/28 06:33:38;;;;;;;25.45;20.50;;;10.30;99.90;;;;;;5049609;28;20120;-79
2021/09/28 06:36:04;;;;;;;33.03;22.08;;;10.30;99.90;;;;;;5034512;28;20059;-78
2021/09/28 06:38:30;;;;;;;25.83;20.92;;;10.40;99.90;;;;;;5048980;28;20561;-78
2021/09/28 06:40:55;;;;;;;30.92;21.42;;;10.30;99.90;;;;;;5048420;28;20109;-78
2021/09/28 06:43:21;;;;;;;29.45;21.73;;;10.40;99.90;;;;;;5029468;28;20139;-78
2021/09/28 06:45:47;;;;;;;33.25;22.70;;;10.40;99.90;;;;;;5032585;28;20048;-77
2021/09/28 06:48:13;;;;;;;30.60;21.75;;;10.50;99.90;;;;;;5046258;28;20131;-77
2021/09/28 06:50:38;;;;;;;34.88;25.42;;;10.50;99.90;;;;;;5027435;28;20639;-77
2021/09/28 06:53:04;;;;;;;31.80;23.42;;;10.50;99.90;;;;;;5030527;28;20538;-77
2021/09/28 06:55:30;;;;;;;38.88;23.58;;;10.60;99.90;;;;;;5033239;28;20131;-77
2021/09/28 06:57:56;;;;;;;33.17;22.85;;;10.60;99.90;;;;;;5049493;28;20190;-77
2021/09/28 07:00:22;;;;;;;31.27;21.27;;;10.70;99.90;;;;;;5030586;28;20311;-77
2021/09/28 07:02:47;;;;;;;27.92;20.98;;;10.70;99.90;;;;;;5013799;28;20040;-78
2021/09/28 07:05:14;;;;;;;36.22;23.50;;;10.80;99.90;;;;;;5051365;28;20048;-78
2021/09/28 07:07:41;;;;;;;27.48;20.45;;;10.90;99.90;;;;;;5049003;28;20105;-79
2021/09/28 07:10:10;;;;;;;37.22;22.73;;;10.90;99.90;;;;;;5047204;28;20040;-77
2021/09/28 07:12:36;;;;;;;27.33;20.85;;;11.00;99.90;;;;;;5049389;28;20102;-77
2021/09/28 07:15:06;;;;;;;25.00;18.67;;;11.10;99.90;;;;;;5030546;28;20049;-78
2021/09/28 07:17:35;;;;;;;26.75;18.85;;;11.20;99.90;;;;;;5033738;28;20530;-77
2021/09/28 07:20:02;;;;;;;29.58;19.65;;;11.30;99.90;;;;;;5028082;28;20041;-78
2021/09/28 07:22:28;;;;;;;29.55;18.75;;;11.50;99.90;;;;;;5057602;28;20090;-77
2021/09/28 07:24:55;;;;;;;30.73;19.25;;;11.60;99.90;;;;;;5047913;28;20507;-77
2021/09/28 07:27:22;;;;;;;28.67;19.75;;;11.70;99.90;;;;;;5029163;28;20035;-76
2021/09/28 07:29:48;;;;;;;28.05;16.88;;;11.80;99.90;;;;;;5021722;28;20052;-77
2021/09/28 07:32:14;;;;;;;28.77;18.27;;;11.90;99.90;;;;;;5031835;28;20126;-75
2021/09/28 07:34:43;;;;;;;27.17;17.23;;;12.00;99.90;;;;;;5028965;28;20458;-76
2021/09/28 07:37:09;;;;;;;23.98;16.92;;;12.20;99.90;;;;;;5051264;28;20040;-75
2021/09/28 07:39:35;;;;;;;24.20;16.90;;;12.30;99.90;;;;;;5034605;28;20041;-75
2021/09/28 07:42:05;;;;;;;19.00;14.45;;;12.30;99.90;;;;;;5051537;28;20782;-74
2021/09/28 07:44:31;;;;;;;26.02;14.90;;;12.50;99.90;;;;;;5052025;28;20044;-75
2021/09/28 07:46:58;;;;;;;18.92;13.27;;;12.60;99.90;;;;;;5032014;28;20041;-75
2021/09/28 07:49:25;;;;;;;21.83;12.23;;;12.80;99.90;;;;;;5025795;28;20098;-75
2021/09/28 07:51:51;;;;;;;21.85;12.50;;;12.90;99.90;;;;;;5049804;28;20391;-75
2021/09/28 07:54:17;;;;;;;19.35;11.63;;;13.10;99.90;;;;;;5055683;28;20044;-75
2021/09/28 07:56:43;;;;;;;16.90;11.40;;;13.20;99.90;;;;;;5032316;28;20427;-78
2021/09/28 07:59:10;;;;;;;23.77;11.15;;;13.30;99.90;;;;;;5034337;28;20044;-77
2021/09/28 08:01:36;;;;;;;19.77;10.70;;;13.50;99.90;;;;;;5049566;28;20048;-77
2021/09/28 08:04:03;;;;;;;19.73;11.23;;;13.70;99.90;;;;;;5034529;28;20072;-77
2021/09/28 08:06:29;;;;;;;19.98;10.48;;;13.90;99.90;;;;;;5049241;28;20048;-77
2021/09/28 08:08:55;;;;;;;17.23;9.80;;;14.10;99.90;;;;;;5023514;28;20055;-77
2021/09/28 08:11:21;;;;;;;23.20;9.15;;;14.30;99.90;;;;;;5029904;28;20055;-77
2021/09/28 08:13:47;;;;;;;17.77;10.27;;;14.50;99.90;;;;;;5055209;28;20259;-77
2021/09/28 08:16:13;;;;;;;19.02;9.68;;;14.60;99.90;;;;;;5051924;28;20043;-77
2021/09/28 08:18:38;;;;;;;13.40;7.75;;;14.70;99.90;;;;;;5032629;28;20040;-77
2021/09/28 08:21:04;;;;;;;18.60;8.32;;;14.80;99.90;;;;;;5049379;28;20060;-76
2021/09/28 08:23:30;;;;;;;15.13;8.55;;;14.90;99.90;;;;;;5049319;28;20040;-77
2021/09/28 08:31:08;;;;;;;15.00;8.25;;;15.20;99.90;;;;;;5050999;28;20044;-76
2021/09/28 08:33:35;;;;;;;14.77;7.53;;;15.40;99.90;;;;;;5035580;28;20552;-76
2021/09/28 08:36:02;;;;;;;15.20;7.38;;;15.40;99.90;;;;;;5053173;28;20060;-77
2021/09/28 08:38:29;;;;;;;11.88;6.82;;;15.40;99.90;;;;;;5051882;28;20511;-77
2021/09/28 08:40:57;;;;;;;14.45;8.07;;;15.40;99.90;;;;;;5051746;28;20044;-77
2021/09/28 08:43:23;;;;;;;16.23;7.45;;;15.50;99.90;;;;;;5030989;28;20048;-77
2021/09/28 08:45:49;;;;;;;14.50;7.75;;;15.50;99.90;;;;;;5055732;28;20055;-77
2021/09/28 08:48:15;;;;;;;19.88;7.63;;;15.60;99.90;;;;;;5033815;28;20032;-77
2021/09/28 08:50:47;;;;;;;13.70;6.85;;;15.70;99.90;;;;;;5052252;28;20589;-76
2021/09/28 08:53:17;;;;;;;17.27;6.45;;;15.90;99.90;;;;;;5049717;28;20497;-77
2021/09/28 08:55:43;;;;;;;17.45;7.20;;;16.10;99.90;;;;;;5035854;28;20036;-77
2021/09/28 08:58:24;;;;;;;18.48;6.50;;;16.20;99.90;;;;;;5052986;28;20056;-76
2021/09/28 09:01:03;;;;;;;16.88;6.28;;;16.30;99.90;;;;;;5036851;28;20507;-76
2021/09/28 09:03:34;;;;;;;11.80;6.90;;;16.30;99.90;;;;;;5055072;28;20056;-77
2021/09/28 09:06:07;;;;;;;18.35;6.05;;;16.40;99.90;;;;;;5035258;28;20067;-77
2021/09/28 09:08:34;;;;;;;17.65;5.93;;;16.40;99.90;;;;;;5036824;28;20071;-76
2021/09/28 09:11:02;;;;;;;14.25;6.05;;;16.50;99.90;;;;;;5037079;28;20406;-76
2021/09/28 09:13:36;;;;;;;14.75;5.53;;;16.60;99.90;;;;;;5055807;28;20040;-75
2021/09/28 09:16:03;;;;;;;13.20;5.90;;;16.60;99.90;;;;;;5051298;28;20055;-76
2021/09/28 09:18:29;;;;;;;13.77;5.95;;;16.60;99.90;;;;;;5030739;28;20467;-76
2021/09/28 09:20:59;;;;;;;20.08;6.07;;;16.60;99.90;;;;;;5036813;28;20105;-76
2021/09/28 09:23:37;;;;;;;12.23;4.85;;;16.70;99.90;;;;;;5012350;28;20499;-77
2021/09/28 09:26:11;;;;;;;16.67;5.75;;;16.90;99.90;;;;;;5036126;28;20048;-76
2021/09/28 09:28:50;;;;;;;14.32;4.82;;;17.00;99.90;;;;;;5050750;28;20048;-76
2021/09/28 09:31:22;;;;;;;13.40;4.78;;;17.00;99.90;;;;;;5048534;28;20053;-77
2021/09/28 09:33:51;;;;;;;11.38;3.92;;;17.00;99.90;;;;;;5051098;28;20135;-75
2021/09/28 09:36:19;;;;;;;20.25;4.85;;;17.10;99.90;;;;;;5051466;28;20032;-76
2021/09/28 09:38:54;;;;;;;10.55;4.82;;;17.10;99.90;;;;;;5032098;28;20060;-76
2021/09/28 09:41:26;;;;;;;16.25;5.38;;;17.10;99.90;;;;;;5030138;28;20495;-77
2021/09/28 09:44:04;;;;;;;15.30;4.75;;;17.00;99.90;;;;;;5047563;28;20349;-76
2021/09/28 09:46:51;;;;;;;13.60;4.82;;;17.00;99.90;;;;;;5025225;28;20037;-76
2021/09/28 09:49:35;;;;;;;11.00;4.30;;;17.00;99.90;;;;;;5047314;28;20454;-76
2021/09/28 09:52:09;;;;;;;16.17;3.78;;;17.20;99.90;;;;;;5051084;28;20056;-76
2021/09/28 09:54:39;;;;;;;12.10;3.45;;;17.20;99.90;;;;;;5057382;28;20045;-74
2021/09/28 09:57:07;;;;;;;13.23;4.22;;;17.30;99.90;;;;;;5042905;28;20057;-76
2021/09/28 09:59:35;;;;;;;11.85;4.35;;;17.20;99.90;;;;;;5045838;28;20041;-75
2021/09/28 10:02:02;;;;;;;17.67;4.28;;;17.20;99.90;;;;;;5029899;28;20080;-76
2021/09/28 10:04:28;;;;;;;12.80;3.65;;;17.20;99.90;;;;;;5033082;28;20120;-76
2021/09/28 10:06:55;;;;;;;10.93;3.63;;;17.20;99.90;;;;;;5046327;28;20136;-76
2021/09/28 10:09:30;;;;;;;14.65;3.72;;;17.30;99.90;;;;;;5050793;28;20044;-76
2021/09/28 10:12:05;;;;;;;12.18;3.78;;;17.50;99.90;;;;;;5040157;28;20114;-76
2021/09/28 10:14:35;;;;;;;10.40;3.00;;;17.60;99.90;;;;;;5031215;28;20131;-75
2021/09/28 10:17:22;;;;;;;14.32;3.03;;;17.60;99.90;;;;;;5027190;28;20128;-76
2021/09/28 10:19:52;;;;;;;13.60;3.45;;;17.70;99.90;;;;;;5036278;28;20087;-75
2021/09/28 10:22:52;;;;;;;13.57;3.05;;;17.70;99.90;;;;;;5024935;28;20044;-75
2021/09/28 10:25:23;;;;;;;10.13;2.55;;;17.80;99.90;;;;;;5006675;28;20164;-75
2021/09/28 10:28:04;;;;;;;12.63;2.90;;;17.80;99.90;;;;;;5041511;28;20081;-75
2021/09/28 10:33:23;;;;;;;11.18;2.58;;;17.90;99.90;;;;;;5033033;28;20140;-75
2021/09/28 10:36:08;;;;;;;13.13;2.92;;;17.90;99.90;;;;;;5034612;28;20171;-74
2021/09/28 10:39:01;;;;;;;8.95;2.67;;;18.00;99.90;;;;;;5049562;28;20056;-75
2021/09/28 10:41:38;;;;;;;13.57;2.65;;;18.00;99.70;;;;;;5051405;28;20077;-74
2021/09/28 10:44:25;;;;;;;10.73;2.42;;;18.00;99.80;;;;;;5027117;28;20076;-75
2021/09/28 10:46:54;;;;;;;14.85;3.25;;;18.10;99.90;;;;;;5063809;28;20056;-75
2021/09/28 10:49:25;;;;;;;11.50;2.60;;;18.20;99.90;;;;;;5061518;28;20044;-74
2021/09/28 10:51:50;;;;;;;12.50;2.53;;;18.20;99.60;;;;;;5041489;28;20115;-75
2021/09/28 10:54:16;;;;;;;13.70;3.13;;;18.40;99.40;;;;;;5049173;28;20091;-75
2021/09/28 10:56:52;;;;;;;10.90;2.33;;;18.40;98.80;;;;;;5014163;28;20045;-75
2021/09/28 10:59:17;;;;;;;9.82;2.10;;;18.40;98.10;;;;;;5027535;28;20048;-74
2021/09/28 11:02:08;;;;;;;14.27;2.47;;;18.30;97.80;;;;;;5026007;28;20053;-74
2021/09/28 11:04:34;;;;;;;10.75;1.95;;;18.30;98.00;;;;;;5056606;28;20071;-76
2021/09/28 11:07:13;;;;;;;12.35;2.08;;;18.40;97.10;;;;;;5013769;28;20052;-74
2021/09/28 11:09:45;;;;;;;13.23;3.08;;;18.30;96.40;;;;;;5023667;28;20041;-74
2021/09/28 11:12:11;;;;;;;8.80;2.03;;;18.20;96.50;;;;;;5023693;28;20045;-75
2021/09/28 11:14:38;;;;;;;10.70;2.58;;;18.10;97.10;;;;;;5027948;28;20049;-74
2021/09/28 11:17:11;;;;;;;13.15;2.28;;;18.10;97.60;;;;;;5027782;28;20056;-75
2021/09/28 11:19:41;;;;;;;9.90;1.98;;;18.10;97.70;;;;;;5028014;28;20047;-74
2021/09/28 11:22:10;;;;;;;8.52;2.90;;;18.20;97.10;;;;;;5042894;28;20045;-75
2021/09/28 11:24:37;;;;;;;10.75;2.17;;;18.30;98.00;;;;;;5027618;28;20088;-74
2021/09/28 11:27:10;;;;;;;9.20;2.08;;;18.40;98.30;;;;;;5026953;28;20119;-74
2021/09/28 11:29:37;;;;;;;11.82;1.88;;;18.60;97.40;;;;;;5027405;28;20140;-74
2021/09/28 11:32:05;;;;;;;13.57;2.50;;;18.70;96.60;;;;;;5046552;28;20465;-74
2021/09/28 11:34:37;;;;;;;9.38;1.80;;;18.70;95.10;;;;;;5028308;28;20495;-74
2021/09/28 11:37:06;;;;;;;8.27;2.05;;;18.70;95.30;;;;;;5029326;28;20124;-75
2021/09/28 11:39:43;;;;;;;10.20;2.70;;;18.80;95.00;;;;;;5047684;28;20056;-74
2021/09/28 11:42:10;;;;;;;9.38;1.90;;;18.80;94.80;;;;;;5044537;28;20565;-75
2021/09/28 11:44:43;;;;;;;8.00;1.77;;;18.70;95.00;;;;;;5030586;28;20174;-74
2021/09/28 11:47:25;;;;;;;10.60;2.22;;;18.60;95.40;;;;;;5044023;28;20048;-74
2021/09/28 11:49:55;;;;;;;12.32;2.20;;;18.50;95.50;;;;;;5046911;28;20385;-75
2021/09/28 11:52:22;;;;;;;8.85;1.63;;;18.50;95.50;;;;;;5051992;28;20045;-75
2021/09/28 11:54:49;;;;;;;11.15;2.10;;;18.50;96.00;;;;;;5044222;28;20037;-74
2021/09/28 11:57:16;;;;;;;10.73;2.13;;;18.60;95.90;;;;;;5045998;28;20045;-74
2021/09/28 11:59:42;;;;;;;9.95;1.60;;;18.80;96.00;;;;;;5007277;28;20153;-74
2021/09/28 12:02:08;;;;;;;10.07;1.75;;;18.90;94.70;;;;;;5029576;28;20136;-74
2021/09/28 12:05:45;;;;;;;10.48;2.13;;;19.00;93.50;;;;;;5011624;28;20191;-74
2021/09/28 12:10:18;;;;;;;9.25;2.00;;;19.20;93.60;;;;;;5023959;28;20117;-75
2021/09/28 12:12:45;;;;;;;10.60;1.83;;;19.30;93.00;;;;;;5045246;28;20120;-75
2021/09/28 12:15:12;;;;;;;12.60;1.92;;;19.30;92.50;;;;;;5028411;28;20429;-75
2021/09/28 12:17:41;;;;;;;13.27;2.55;;;19.40;93.20;;;;;;5026630;28;20094;-75
2021/09/28 12:20:16;;;;;;;9.95;2.05;;;19.50;93.30;;;;;;5043166;28;20033;-75
2021/09/28 12:22:52;;;;;;;10.98;2.28;;;19.60;92.50;;;;;;5021788;28;20047;-75
2021/09/28 12:25:23;;;;;;;10.70;2.05;;;19.50;91.00;;;;;;5027047;28;20037;-73
2021/09/28 12:27:59;;;;;;;10.43;2.33;;;19.40;90.80;;;;;;5033874;28;20041;-74
2021/09/28 12:30:28;;;;;;;7.50;1.63;;;19.30;91.80;;;;;;5026648;28;20045;-74
2021/09/28 12:32:54;;;;;;;7.65;1.60;;;19.30;92.00;;;;;;5045722;28;20053;-73
2021/09/28 12:35:35;;;;;;;9.18;1.90;;;19.40;91.20;;;;;;5047750;28;20050;-74
2021/09/28 12:38:07;;;;;;;8.23;1.77;;;19.50;91.20;;;;;;5046474;28;20132;-74
2021/09/28 12:40:37;;;;;;;8.32;1.35;;;19.50;90.40;;;;;;5043656;28;20045;-74
2021/09/28 12:43:12;;;;;;;9.20;1.65;;;19.50;90.90;;;;;;5010990;28;20140;-74
2021/09/28 12:45:56;;;;;;;6.15;1.92;;;19.70;91.10;;;;;;5028095;28;20033;-73
2021/09/28 12:48:34;;;;;;;8.05;1.70;;;19.70;90.80;;;;;;5045884;28;20353;-74
2021/09/28 12:51:11;;;;;;;8.30;1.50;;;19.60;88.80;;;;;;5025096;28;20048;-74